Terminal Aerodrome Forecast
Issued by NWS

Home | Current Version | Previous Version | Text Only | Print | Product List | Glossary On
Versions: 1 2 3 4 5 6 7 8 9 10 11 12 13 14 15 16
190
FTPA31 PHFO 240545
TAFHOG
TAF
PHOG 240545Z 2406/2506 06016G26KT P6SM -RA BKN025 BKN035
     FM241400 07018G26KT 2SM RA BR BKN015 OVC035
     FM250500 15015G25KT P6SM VCSH SCT015 BKN035
      AMD LTD TO VIS AND WIND 2409/2416=

USA.gov is the U.S. government's official web portal to all federal, state and local government web resources and services.